Baileyville, Texas
Current Conditions -  °F | °C
As of 8:35 AM on Friday 24 Oct 2014 (Local Time) from KT35 Reporting Station
Broken Clouds Broken Clouds  
Wind Chill: 59°   Ceiling: 7000
Heat Index: 59°   Visibility: 10mi
Dew Point: 56°   Wind: 0mph
Humidity: 91%   Direction: NA
Pressure: 30.17"   Gusts: NA
Location:  31.0981°N, 96.99°W
Report Text: KT35 241335Z AUTO 00000KT 10SM SCT055 BKN070 15/13 A3017 RMK AO2 T01480134
Loading
Personal Weather Stations






























Interactive Weather Map
Tropical Storm Tracking
New forecast layout! Learn more

10-Day Weather Forecast

Advertisements
Track Severe Weather on mobile